New Nada — 3ELP9 — position and weather

sailwx.info

Track history (hours):
 
Tides and Currents Weather Stations Pressure Air Temp Water Temp Dewpoint Dewpoint Depression Visibility Wind Speed Wind Dir Waves Ship Positions

New Nada

Last reported at 2017-Feb-26 05:33 UTC. Time now 2017-Feb-26 10:31 UTC.
Position N 47°02' W 125°06'.

Length 180 m; beam 32.2 m.

Type: Cargo ship. MMSI: 356005000.

Date/timePositionNaut miles runAvg speedWind from/ knotsBaromVisibWave heightAir tempDewpointWater temp
2017-Feb-26 05:33N 47°02' W 125°06'1 1.1
2017-Feb-26 04:33N 47°02' W 125°05'2 1.8
2017-Feb-26 03:33N 47°03' W 125°07'2 1.7
2017-Feb-26 02:33N 47°04' W 125°09'1 1.3
2017-Feb-26 01:33N 47°04' W 125°11'1 1.4
2017-Feb-26 00:32N 47°05' W 125°13'2 1.2
2017-Feb-25 23:14N 47°06' W 125°14'1 1.1
2017-Feb-25 22:33N 47°07' W 125°15'1 0.6
2017-Feb-25 21:31N 47°07' W 125°16'1 1.0
2017-Feb-25 20:12N 47°07' W 125°17'1 1.0
2017-Feb-25 19:29N 47°07' W 125°18'1 1.1
2017-Feb-25 18:24N 47°06' W 125°19'1 1.2
2017-Feb-25 17:26N 47°05' W 125°21'3 1.0
2017-Feb-25 14:33N 47°03' W 125°23'1111.4
2017-Feb-25 13:33N 46°54' W 125°13'1211.8
2017-Feb-25 12:34N 46°45' W 125°02'1212.0
2017-Feb-25 11:34N 46°36' W 124°50'1212.3
2017-Feb-25 10:33N 46°30' W 124°34'1312.6
2017-Feb-25 09:33N 46°22' W 124°20'1312.9
2017-Feb-25 08:34N 46°10' W 124°11'9 9.1
2017-Feb-25 07:33N 46°14' W 123°59'9 9.0
2017-Feb-25 06:33N 46°13' W 123°46'1313.0
2017-Feb-25 05:34N 46°16' W 123°28'1111.1
2017-Feb-25 04:34N 46°10' W 123°14'1313.3
2017-Feb-25 03:33N 46°06' W 122°56'1211.8
2017-Feb-25 02:33N 45°55' W 122°49'1313.0
2017-Feb-25 01:33N 45°42' W 122°46'6 5.9
2017-Feb-25 00:31N 45°36' W 122°47'0 0.0
2017-Feb-24 23:22N 45°36' W 122°47'0 0.0
2017-Feb-24 22:25N 45°36' W 122°47'0 0.0
2017-Feb-24 21:31N 45°36' W 122°47'0 0.0
2017-Feb-24 20:31N 45°36' W 122°47'0 0.0
2017-Feb-24 19:31N 45°36' W 122°47'0 0.0
2017-Feb-24 18:31N 45°36' W 122°47'0 0.0
2017-Feb-24 17:31N 45°36' W 122°47'0 0.0
2017-Feb-24 16:31N 45°36' W 122°47'0 0.0
2017-Feb-24 15:31N 45°36' W 122°47'0 0.0
2017-Feb-24 14:31N 45°36' W 122°47'0 0.0
2017-Feb-24 13:31N 45°36' W 122°47'1 0.5
2017-Feb-24 12:33N 45°36' W 122°47'6 6.3
2017-Feb-24 11:33N 45°43' W 122°46'1110.6
2017-Feb-24 10:33N 45°53' W 122°48'1010.0
2017-Feb-24 09:33N 46°03' W 122°53'9 9.2
2017-Feb-24 08:33N 46°09' W 123°02'1110.7
2017-Feb-24 07:33N 46°09' W 123°18'10 9.5
2017-Feb-24 06:33N 46°16' W 123°27'1212.2
2017-Feb-24 05:33N 46°13' W 123°45'10 9.9
2017-Feb-24 04:33N 46°14' W 123°59'1010.2
2017-Feb-24 03:33N 46°10' W 124°12'9 9.3
2017-Feb-24 02:33N 46°05' W 124°24'10 9.7
2017-Feb-24 01:33N 46°02' W 124°37'1111.2
2017-Feb-24 00:33N 46°01' W 124°53'1111.3
2017-Feb-23 23:33N 46°00' W 125°09'1111.4
2017-Feb-23 22:33N 45°58' W 125°26'13 6.3
2017-Feb-23 20:27N 45°55' W 125°44'  
Track history (hours):
 
Tides and Currents Weather Stations Pressure Air Temp Water Temp Dewpoint Dewpoint Depression Visibility Wind Speed Wind Dir Waves Ship Positions

New Nada

Last reported at 2017-Feb-26 05:33 UTC. Time now 2017-Feb-26 10:31 UTC.
Position N 47°02' W 125°06'.

Length 180 m; beam 32.2 m.

Type: Cargo ship. MMSI: 356005000.

Date/timePositionNaut miles runAvg speedWind from/ knotsBaromVisibWave heightAir tempDewpointWater temp
2017-Feb-26 05:33N 47°02' W 125°06'1 1.1
2017-Feb-26 04:33N 47°02' W 125°05'2 1.8
2017-Feb-26 03:33N 47°03' W 125°07'2 1.7
2017-Feb-26 02:33N 47°04' W 125°09'1 1.3
2017-Feb-26 01:33N 47°04' W 125°11'1 1.4
2017-Feb-26 00:32N 47°05' W 125°13'2 1.2
2017-Feb-25 23:14N 47°06' W 125°14'1 1.1
2017-Feb-25 22:33N 47°07' W 125°15'1 0.6
2017-Feb-25 21:31N 47°07' W 125°16'1 1.0
2017-Feb-25 20:12N 47°07' W 125°17'1 1.0
2017-Feb-25 19:29N 47°07' W 125°18'1 1.1
2017-Feb-25 18:24N 47°06' W 125°19'1 1.2
2017-Feb-25 17:26N 47°05' W 125°21'3 1.0
2017-Feb-25 14:33N 47°03' W 125°23'1111.4
2017-Feb-25 13:33N 46°54' W 125°13'1211.8
2017-Feb-25 12:34N 46°45' W 125°02'1212.0
2017-Feb-25 11:34N 46°36' W 124°50'1212.3
2017-Feb-25 10:33N 46°30' W 124°34'1312.6
2017-Feb-25 09:33N 46°22' W 124°20'1312.9
2017-Feb-25 08:34N 46°10' W 124°11'9 9.1
2017-Feb-25 07:33N 46°14' W 123°59'9 9.0
2017-Feb-25 06:33N 46°13' W 123°46'1313.0
2017-Feb-25 05:34N 46°16' W 123°28'1111.1
2017-Feb-25 04:34N 46°10' W 123°14'1313.3
2017-Feb-25 03:33N 46°06' W 122°56'1211.8
2017-Feb-25 02:33N 45°55' W 122°49'1313.0
2017-Feb-25 01:33N 45°42' W 122°46'6 5.9
2017-Feb-25 00:31N 45°36' W 122°47'0 0.0
2017-Feb-24 23:22N 45°36' W 122°47'0 0.0
2017-Feb-24 22:25N 45°36' W 122°47'0 0.0
2017-Feb-24 21:31N 45°36' W 122°47'0 0.0
2017-Feb-24 20:31N 45°36' W 122°47'0 0.0
2017-Feb-24 19:31N 45°36' W 122°47'0 0.0
2017-Feb-24 18:31N 45°36' W 122°47'0 0.0
2017-Feb-24 17:31N 45°36' W 122°47'0 0.0
2017-Feb-24 16:31N 45°36' W 122°47'0 0.0
2017-Feb-24 15:31N 45°36' W 122°47'0 0.0
2017-Feb-24 14:31N 45°36' W 122°47'0 0.0
2017-Feb-24 13:31N 45°36' W 122°47'1 0.5
2017-Feb-24 12:33N 45°36' W 122°47'6 6.3
2017-Feb-24 11:33N 45°43' W 122°46'1110.6
2017-Feb-24 10:33N 45°53' W 122°48'1010.0
2017-Feb-24 09:33N 46°03' W 122°53'9 9.2
2017-Feb-24 08:33N 46°09' W 123°02'1110.7
2017-Feb-24 07:33N 46°09' W 123°18'10 9.5
2017-Feb-24 06:33N 46°16' W 123°27'1212.2
2017-Feb-24 05:33N 46°13' W 123°45'10 9.9
2017-Feb-24 04:33N 46°14' W 123°59'1010.2
2017-Feb-24 03:33N 46°10' W 124°12'9 9.3
2017-Feb-24 02:33N 46°05' W 124°24'10 9.7
2017-Feb-24 01:33N 46°02' W 124°37'1111.2
2017-Feb-24 00:33N 46°01' W 124°53'1111.3
2017-Feb-23 23:33N 46°00' W 125°09'1111.4
2017-Feb-23 22:33N 45°58' W 125°26'13 6.3
2017-Feb-23 20:27N 45°55' W 125°44'  

Dump ship's entire track history